KNLC/NLC METAR and TAF weather

Enter ICAO airport designator
Station Type Date Time Source
KNLC METAR 2019/06/26 19:56 UTC NOAA

KNLC 261956Z 02008KT 10SM CLR 29/08 A2993 RMK AO2 SLP134 RH/26 T02940083


Station Type Date Time Source
KNLC Decoded METAR 2019/06/26 19:56 UTC NOAA

LEMOORE NAVAL AIR STATION, CA, United States (KNLC) 36-20N 119-57W 72M
Jun 26, 2019 - 03:56 PM EDT / 2019.06.26 1956 UTC
Wind: from the NNE (020 degrees) at 9 MPH (8 KT):0
Visibility: 10 mile(s):0
Sky conditions: clear
Temperature: 84.9 F (29.4 C)
Dew Point: 46.9 F (8.3 C)
Relative Humidity: 26%
Pressure (altimeter): 29.93 in. Hg (1013 hPa)
ob: KNLC 261956Z 02008KT 10SM CLR 29/08 A2993 RMK AO2 SLP134 RH/26 T02940083
cycle: 20

Station Type Date Time Source
KNLC TAF 2019/06/26 15:59 UTC NOAA

TAF KNLC 2615/2715 32009KT 9999 SCT210 QNH2983INS
FM270300 35012KT 9999 SCT250 520009 QNH2985INS
TEMPO 2703/2709 35012G20KT T31/2623Z T14/2712Z FS30135

Example: see airport list